createdAt,value
2018-11-26T00:02:17.958Z,37.20
2018-11-26T00:04:45.412Z,33.27
2018-11-26T00:07:12.874Z,34.97
2018-11-26T00:09:41.913Z,32.03
2018-11-26T00:12:09.355Z,36.77
2018-11-26T00:14:37.905Z,40.53
2018-11-26T00:17:05.368Z,36.70
2018-11-26T00:19:32.829Z,38.77
2018-11-26T00:22:00.292Z,36.67
2018-11-26T00:24:27.762Z,42.33
2018-11-26T00:26:55.228Z,36.90
2018-11-26T00:29:22.680Z,32.50
2018-11-26T00:31:51.072Z,36.90
2018-11-26T00:34:18.620Z,37.57
2018-11-26T00:36:46.086Z,35.77
2018-11-26T00:39:13.557Z,29.67
2018-11-26T00:41:41.024Z,34.63
2018-11-26T00:44:08.488Z,37.07
2018-11-26T00:46:35.969Z,36.47
2018-11-26T00:49:04.982Z,37.17
2018-11-26T00:51:32.432Z,38.20
2018-11-26T00:53:59.888Z,33.73
2018-11-26T00:56:28.447Z,33.90
2018-11-26T00:58:55.898Z,39.87
2018-11-26T01:01:23.463Z,37.17
2018-11-26T01:03:51.027Z,36.27
2018-11-26T01:06:18.493Z,37.53
2018-11-26T01:08:45.943Z,31.93
2018-11-26T01:11:13.532Z,33.80
2018-11-26T01:13:41.007Z,34.70
2018-11-26T01:16:09.237Z,28.90
2018-11-26T01:18:36.736Z,32.27
2018-11-26T01:21:04.278Z,30.33
2018-11-26T01:23:31.746Z,38.10
2018-11-26T01:25:59.216Z,35.43
2018-11-26T01:28:26.682Z,34.07
2018-11-26T01:30:54.148Z,37.30
2018-11-26T01:33:22.381Z,29.47
2018-11-26T01:35:49.853Z,30.27
2018-11-26T01:38:17.309Z,42.90
2018-11-26T01:40:44.789Z,33.97
2018-11-26T01:43:12.245Z,38.33
2018-11-26T01:45:39.712Z,30.27
2018-11-26T01:48:07.270Z,31.93
2018-11-26T01:50:34.836Z,32.53
2018-11-26T01:53:02.311Z,25.57
2018-11-26T01:55:29.876Z,39.37
2018-11-26T01:57:57.347Z,32.90
2018-11-26T02:00:25.569Z,37.10
2018-11-26T02:02:53.037Z,36.90
2018-11-26T02:05:20.488Z,33.70
2018-11-26T02:07:47.992Z,35.17
2018-11-26T02:10:15.450Z,34.07
2018-11-26T02:12:42.916Z,32.27
2018-11-26T02:15:10.481Z,30.33
2018-11-26T02:17:37.960Z,32.27
2018-11-26T02:20:05.433Z,31.73
2018-11-26T02:22:32.886Z,31.17
2018-11-26T02:25:00.345Z,31.93
2018-11-26T02:27:27.896Z,33.97
2018-11-26T02:29:55.367Z,31.63
2018-11-26T02:32:22.835Z,34.50
2018-11-26T02:34:50.312Z,34.60
2018-11-26T02:37:18.536Z,30.27
2018-11-26T02:39:46.030Z,29.23
2018-11-26T02:42:14.271Z,27.83
2018-11-26T02:44:41.768Z,29.17
2018-11-26T02:47:09.253Z,26.37
2018-11-26T02:49:37.485Z,30.10
2018-11-26T02:52:04.957Z,30.63
2018-11-26T02:54:32.438Z,27.07
2018-11-26T02:56:59.994Z,28.27
2018-11-26T02:59:29.044Z,34.50
2018-11-26T03:01:56.515Z,25.63
2018-11-26T03:04:23.967Z,30.20
2018-11-26T03:06:51.452Z,29.00
2018-11-26T03:09:18.918Z,33.27
2018-11-26T03:11:46.378Z,27.20
2018-11-26T03:14:13.839Z,32.33
2018-11-26T03:16:41.333Z,31.17
2018-11-26T03:19:08.788Z,36.50
2018-11-26T03:21:36.253Z,30.13
2018-11-26T03:24:04.823Z,28.03
2018-11-26T03:26:32.275Z,28.57
2018-11-26T03:28:59.732Z,39.73
2018-11-26T03:31:27.213Z,33.30
2018-11-26T03:33:54.671Z,36.63
2018-11-26T03:36:22.138Z,29.67
2018-11-26T03:38:49.695Z,28.77
2018-11-26T03:41:17.260Z,30.00
2018-11-26T03:43:44.737Z,33.87
2018-11-26T03:46:13.010Z,28.57
2018-11-26T03:48:40.585Z,30.23
2018-11-26T03:51:09.568Z,28.50
2018-11-26T03:53:37.023Z,28.20
2018-11-26T03:56:04.495Z,34.43
2018-11-26T03:58:31.960Z,34.93
2018-11-26T04:00:59.447Z,27.50
2018-11-26T04:03:27.660Z,32.07
2018-11-26T04:05:55.136Z,28.67
2018-11-26T04:08:22.604Z,28.37
2018-11-26T04:10:50.080Z,35.90
2018-11-26T04:13:17.598Z,22.83
2018-11-26T04:15:45.067Z,33.43
2018-11-26T04:18:12.535Z,28.03
2018-11-26T04:20:39.998Z,35.07
2018-11-26T04:23:07.475Z,30.47
2018-11-26T04:25:35.270Z,25.73
2018-11-26T04:28:03.756Z,28.90
2018-11-26T04:30:31.225Z,28.43
2018-11-26T04:32:58.692Z,29.33
2018-11-26T04:35:26.962Z,32.07
2018-11-26T04:37:54.435Z,35.37
2018-11-26T04:40:22.651Z,31.57
2018-11-26T04:42:50.115Z,29.23
2018-11-26T04:45:17.582Z,31.50
2018-11-26T04:47:45.086Z,30.93
2018-11-26T04:50:13.311Z,31.17
2018-11-26T04:52:40.799Z,32.30
2018-11-26T04:55:08.277Z,31.90
2018-11-26T04:57:42.074Z,33.77
2018-11-26T05:00:04.404Z,28.50
2018-11-26T05:02:31.890Z,37.10
2018-11-26T05:04:59.486Z,37.07
2018-11-26T05:07:26.951Z,29.97
2018-11-26T05:09:55.184Z,33.67
2018-11-26T05:12:22.757Z,40.30
2018-11-26T05:14:50.326Z,29.93
2018-11-26T05:17:18.563Z,32.37
2018-11-26T05:19:46.058Z,33.50
2018-11-26T05:22:13.533Z,41.10
2018-11-26T05:24:41.092Z,38.07
2018-11-26T05:27:08.656Z,33.83
2018-11-26T05:29:36.221Z,30.07
2018-11-26T05:32:03.695Z,38.87
2018-11-26T05:34:31.920Z,33.80
2018-11-26T05:36:59.383Z,33.20
2018-11-26T05:39:26.849Z,34.40
2018-11-26T05:41:54.315Z,36.17
2018-11-26T05:44:21.864Z,30.50
2018-11-26T05:46:49.279Z,34.20
2018-11-26T05:49:16.959Z,36.03
2018-11-26T05:51:44.408Z,33.20
2018-11-26T05:54:11.965Z,35.00
2018-11-26T05:56:39.539Z,29.07
2018-11-26T05:59:07.090Z,38.20
2018-11-26T06:01:34.570Z,34.23
2018-11-26T06:04:02.020Z,31.43
2018-11-26T06:06:29.488Z,32.63
2018-11-26T06:08:56.980Z,30.50
2018-11-26T06:11:24.461Z,30.60
2018-11-26T06:13:51.917Z,33.07
2018-11-26T06:16:19.384Z,34.93
2018-11-26T06:18:46.876Z,35.07
2018-11-26T06:21:14.335Z,33.13
2018-11-26T06:23:41.925Z,32.97
2018-11-26T06:26:09.484Z,37.87
2018-11-26T06:28:37.709Z,37.90
2018-11-26T06:31:05.172Z,35.03
2018-11-26T06:33:32.624Z,38.33
2018-11-26T06:36:00.125Z,35.93
2018-11-26T06:38:27.582Z,26.80
2018-11-26T06:40:55.051Z,36.80
2018-11-26T06:43:22.632Z,33.00
2018-11-26T06:45:50.096Z,42.63
2018-11-26T06:48:17.547Z,31.43
2018-11-26T06:50:45.069Z,35.40
2018-11-26T06:53:12.541Z,38.33
2018-11-26T06:55:40.009Z,33.43
2018-11-26T06:58:07.467Z,36.20
2018-11-26T07:00:34.927Z,37.67
2018-11-26T07:03:02.402Z,33.20
2018-11-26T07:05:29.883Z,32.17
2018-11-26T07:07:57.368Z,32.27
2018-11-26T07:10:24.818Z,35.00
2018-11-26T07:12:52.374Z,35.50
2018-11-26T07:15:19.830Z,39.93
2018-11-26T07:17:47.302Z,30.17
2018-11-26T07:20:14.868Z,39.37
2018-11-26T07:22:42.329Z,31.60
2018-11-26T07:25:09.889Z,35.83
2018-11-26T07:27:37.357Z,38.20
2018-11-26T07:30:04.830Z,35.10
2018-11-26T07:32:32.293Z,36.53
2018-11-26T07:34:59.843Z,31.17
2018-11-26T07:37:27.405Z,30.13
2018-11-26T07:39:54.863Z,30.83
2018-11-26T07:42:23.095Z,30.53
2018-11-26T07:44:50.572Z,35.63
2018-11-26T07:47:18.050Z,31.13
2018-11-26T07:49:45.513Z,36.90
2018-11-26T07:52:12.986Z,39.23
2018-11-26T07:54:41.072Z,34.53
2018-11-26T07:57:09.344Z,34.27
2018-11-26T07:59:36.820Z,32.80
2018-11-26T08:02:04.281Z,37.10
2018-11-26T08:04:33.262Z,37.43
2018-11-26T08:07:00.826Z,34.17
2018-11-26T08:09:28.292Z,32.00
2018-11-26T08:11:55.762Z,30.17
2018-11-26T08:14:23.231Z,34.93
2018-11-26T08:16:50.688Z,36.63
2018-11-26T08:19:19.673Z,31.83
2018-11-26T08:21:47.240Z,36.40
2018-11-26T08:24:14.696Z,32.57
2018-11-26T08:26:42.936Z,37.40
2018-11-26T08:29:10.402Z,33.13
2018-11-26T08:31:37.899Z,38.43
2018-11-26T08:34:05.375Z,36.37
2018-11-26T08:36:32.828Z,41.90
2018-11-26T08:39:00.299Z,39.50
2018-11-26T08:41:28.549Z,40.03
2018-11-26T08:43:56.013Z,40.37
2018-11-26T08:46:23.478Z,39.30
2018-11-26T08:48:50.939Z,33.43
2018-11-26T08:51:18.404Z,34.83
2018-11-26T08:53:45.882Z,45.23
2018-11-26T08:56:13.344Z,30.93
2018-11-26T08:58:42.388Z,41.77
2018-11-26T09:01:09.853Z,40.53
2018-11-26T09:03:37.320Z,35.10
2018-11-26T09:06:04.790Z,37.33
2018-11-26T09:08:32.284Z,30.43
2018-11-26T09:10:59.856Z,43.83
2018-11-26T09:13:28.834Z,38.83
2018-11-26T09:15:56.297Z,34.40
2018-11-26T09:18:23.769Z,31.60
2018-11-26T09:20:51.222Z,30.07
2018-11-26T09:23:18.682Z,36.60
2018-11-26T09:25:46.148Z,37.53
2018-11-26T09:28:14.439Z,42.30
2018-11-26T09:30:41.919Z,33.63
2018-11-26T09:33:10.485Z,28.03
2018-11-26T09:35:37.940Z,35.80
2018-11-26T09:38:05.510Z,35.50
2018-11-26T09:40:33.066Z,30.40
2018-11-26T09:43:00.541Z,34.63
2018-11-26T09:45:28.817Z,31.67
2018-11-26T09:47:56.277Z,33.97
2018-11-26T09:50:24.037Z,41.00
2018-11-26T09:52:51.497Z,38.33
2018-11-26T09:55:18.954Z,30.00
2018-11-26T09:57:46.533Z,32.40
2018-11-26T10:00:13.986Z,29.37
2018-11-26T10:02:41.563Z,34.67
2018-11-26T10:05:09.117Z,33.50
2018-11-26T10:07:36.591Z,34.87
2018-11-26T10:10:04.877Z,31.70
2018-11-26T10:12:32.428Z,27.77
2018-11-26T10:14:59.899Z,36.77
2018-11-26T10:17:27.364Z,32.30
2018-11-26T10:19:54.821Z,33.80
2018-11-26T10:22:22.301Z,32.77
2018-11-26T10:24:50.537Z,33.60
2018-11-26T10:27:17.998Z,33.80
2018-11-26T10:29:45.472Z,37.63
2018-11-26T10:32:13.037Z,30.73
2018-11-26T10:34:40.503Z,26.53
2018-11-26T10:37:09.498Z,34.47
2018-11-26T10:39:36.961Z,34.77
2018-11-26T10:42:04.517Z,34.87
2018-11-26T10:44:32.074Z,31.13
2018-11-26T10:46:59.546Z,37.50
2018-11-26T10:49:27.116Z,31.77
2018-11-26T10:51:54.679Z,35.10
2018-11-26T10:54:22.145Z,37.22
2018-11-26T10:56:49.629Z,30.83
2018-11-26T10:59:17.868Z,32.97
2018-11-26T11:01:45.320Z,33.87
2018-11-26T11:04:12.790Z,32.07
2018-11-26T11:06:40.264Z,28.87
2018-11-26T11:09:07.831Z,24.80
2018-11-26T11:11:35.290Z,31.27
2018-11-26T11:14:02.756Z,33.27
2018-11-26T11:16:30.519Z,25.47
2018-11-26T11:18:58.091Z,30.73
2018-11-26T11:21:25.546Z,30.07
2018-11-26T11:23:53.016Z,28.57
2018-11-26T11:26:20.477Z,27.90
2018-11-26T11:28:47.942Z,29.83
2018-11-26T11:31:15.493Z,22.23
2018-11-26T11:33:43.067Z,34.67
2018-11-26T11:36:10.522Z,27.70
2018-11-26T11:38:38.005Z,31.97
2018-11-26T11:41:05.474Z,29.07
2018-11-26T11:43:33.710Z,26.03
2018-11-26T11:46:01.179Z,31.27
2018-11-26T11:48:28.646Z,27.53
2018-11-26T11:50:56.364Z,27.00
2018-11-26T11:53:23.818Z,22.53
2018-11-26T11:55:52.929Z,31.77
2018-11-26T11:58:21.049Z,24.43
2018-11-26T12:00:48.507Z,22.23
2018-11-26T12:03:15.959Z,29.77
2018-11-26T12:05:43.430Z,27.53
2018-11-26T12:08:10.904Z,27.67
2018-11-26T12:10:38.373Z,26.23
2018-11-26T12:13:06.602Z,26.10
2018-11-26T12:15:34.118Z,26.90
2018-11-26T12:18:04.022Z,28.03
2018-11-26T12:20:31.586Z,27.20
2018-11-26T12:22:59.051Z,24.83
2018-11-26T12:25:27.293Z,28.13
2018-11-26T12:27:54.785Z,23.67
2018-11-26T12:30:22.260Z,24.70
2018-11-26T12:32:49.735Z,31.30
2018-11-26T12:35:17.983Z,26.07
2018-11-26T12:37:45.454Z,27.57
2018-11-26T12:40:13.020Z,30.07
2018-11-26T12:42:40.493Z,24.33
2018-11-26T12:45:07.962Z,31.93
2018-11-26T12:47:35.435Z,30.67
2018-11-26T12:50:04.612Z,28.50
2018-11-26T12:52:32.844Z,27.83
2018-11-26T12:55:00.354Z,26.47
2018-11-26T12:57:27.832Z,30.53
2018-11-26T12:59:55.297Z,26.43
2018-11-26T13:02:23.561Z,31.33
2018-11-26T13:04:51.796Z,26.73
2018-11-26T13:07:19.257Z,31.80
2018-11-26T13:09:46.761Z,28.33
2018-11-26T13:12:14.244Z,29.97
2018-11-26T13:14:42.506Z,27.40
2018-11-26T13:17:10.011Z,29.30
2018-11-26T13:19:37.484Z,24.50
2018-11-26T13:22:04.960Z,37.23
2018-11-26T13:24:32.427Z,26.73
2018-11-26T13:26:59.918Z,27.30
2018-11-26T13:29:27.400Z,25.40
2018-11-26T13:31:54.886Z,28.37
2018-11-26T13:34:22.358Z,25.60
2018-11-26T13:36:49.885Z,31.10
2018-11-26T13:39:17.423Z,26.00
2018-11-26T13:41:44.894Z,32.63
2018-11-26T13:44:12.459Z,26.97
2018-11-26T13:46:39.950Z,26.33
2018-11-26T13:49:07.475Z,22.67
2018-11-26T13:51:34.945Z,29.57
2018-11-26T13:54:02.429Z,27.63
2018-11-26T13:56:30.663Z,27.63
2018-11-26T13:58:58.146Z,31.47
2018-11-26T14:01:25.619Z,25.70
2018-11-26T14:03:53.087Z,42.93
2018-11-26T14:06:21.330Z,32.80
2018-11-26T14:08:48.813Z,37.13
2018-11-26T14:11:16.280Z,34.30
2018-11-26T14:13:43.770Z,32.60
2018-11-26T14:16:12.011Z,27.93
2018-11-26T14:18:39.491Z,25.43
2018-11-26T14:21:07.039Z,29.03
2018-11-26T14:23:34.506Z,19.40
2018-11-26T14:26:02.054Z,21.70
2018-11-26T14:28:29.531Z,25.37
2018-11-26T14:30:56.998Z,25.40
2018-11-26T14:33:24.557Z,25.00
2018-11-26T14:35:52.774Z,22.07
2018-11-26T14:38:20.290Z,23.10
2018-11-26T14:40:47.771Z,23.67
2018-11-26T14:43:15.317Z,26.63
2018-11-26T14:45:42.781Z,20.87
2018-11-26T14:48:10.259Z,20.63
2018-11-26T14:50:37.739Z,20.40
2018-11-26T14:53:05.998Z,22.87
2018-11-26T14:55:33.463Z,22.90
2018-11-26T14:58:01.773Z,24.17
2018-11-26T15:00:29.997Z,24.40
2018-11-26T15:02:57.482Z,22.30
2018-11-26T15:05:24.933Z,20.90
2018-11-26T15:07:52.406Z,20.93
2018-11-26T15:10:19.954Z,17.90
2018-11-26T15:12:47.407Z,20.47
2018-11-26T15:15:14.977Z,20.70
2018-11-26T15:17:42.547Z,20.50
2018-11-26T15:20:10.008Z,23.77
2018-11-26T15:22:37.471Z,23.27
2018-11-26T15:25:05.701Z,18.97
2018-11-26T15:27:33.173Z,20.63
2018-11-26T15:30:00.676Z,21.03
2018-11-26T15:32:28.230Z,21.90
2018-11-26T15:34:56.486Z,18.93
2018-11-26T15:37:24.320Z,22.00
2018-11-26T15:39:51.759Z,20.67
2018-11-26T15:42:19.305Z,24.07
2018-11-26T15:44:46.878Z,20.57
2018-11-26T15:47:15.114Z,20.00
2018-11-26T15:49:42.628Z,23.27
2018-11-26T15:52:10.109Z,22.30
2018-11-26T15:54:38.382Z,19.03
2018-11-26T15:57:06.652Z,19.80
2018-11-26T15:59:34.138Z,17.73
2018-11-26T16:02:01.655Z,19.17
2018-11-26T16:04:29.392Z,20.43
2018-11-26T16:06:56.847Z,20.17
2018-11-26T16:09:24.314Z,21.20
2018-11-26T16:11:51.798Z,18.73
2018-11-26T16:14:19.280Z,19.80
2018-11-26T16:16:46.749Z,18.57
2018-11-26T16:19:14.303Z,19.77
2018-11-26T16:21:41.863Z,22.23
2018-11-26T16:24:09.433Z,22.20
2018-11-26T16:26:36.886Z,21.83
2018-11-26T16:29:04.450Z,16.00
2018-11-26T16:31:31.947Z,21.73
2018-11-26T16:34:00.177Z,21.30
2018-11-26T16:36:27.657Z,26.27
2018-11-26T16:38:55.123Z,22.53
2018-11-26T16:41:22.694Z,17.57
2018-11-26T16:43:50.177Z,24.00
2018-11-26T16:46:18.437Z,24.20
2018-11-26T16:48:46.669Z,15.90
2018-11-26T16:51:14.162Z,17.23
2018-11-26T16:53:41.666Z,22.97
2018-11-26T16:56:09.885Z,19.57
2018-11-26T16:58:37.476Z,21.60
2018-11-26T17:01:04.950Z,20.93
2018-11-26T17:03:33.195Z,25.10
2018-11-26T17:06:00.682Z,19.30
2018-11-26T17:08:28.953Z,22.77
2018-11-26T17:10:56.427Z,22.17
2018-11-26T17:13:23.907Z,19.13
2018-11-26T17:15:52.125Z,19.73
2018-11-26T17:18:19.615Z,22.87
2018-11-26T17:20:47.089Z,20.50
2018-11-26T17:23:14.563Z,22.80
2018-11-26T17:25:42.926Z,19.77
2018-11-26T17:28:10.497Z,22.93
2018-11-26T17:30:37.967Z,22.40
2018-11-26T17:33:05.519Z,19.20
2018-11-26T17:35:32.984Z,22.27
2018-11-26T17:38:00.540Z,19.43
2018-11-26T17:40:28.013Z,21.13
2018-11-26T17:42:56.985Z,23.63
2018-11-26T17:45:24.446Z,20.97
2018-11-26T17:47:51.923Z,19.00
2018-11-26T17:50:19.384Z,23.77
2018-11-26T17:52:46.850Z,22.63
2018-11-26T17:55:14.318Z,23.10
2018-11-26T17:57:41.789Z,19.50
2018-11-26T18:00:10.022Z,18.70
2018-11-26T18:02:37.526Z,18.90
2018-11-26T18:05:05.071Z,23.07
2018-11-26T18:07:33.334Z,18.10
2018-11-26T18:10:00.822Z,20.67
2018-11-26T18:12:28.299Z,22.23
2018-11-26T18:14:56.864Z,23.33
2018-11-26T18:17:24.435Z,23.73
2018-11-26T18:19:51.901Z,22.97
2018-11-26T18:22:19.403Z,18.47
2018-11-26T18:24:46.853Z,22.07
2018-11-26T18:27:15.090Z,22.37
2018-11-26T18:29:42.589Z,22.93
2018-11-26T18:32:10.826Z,23.83
2018-11-26T18:34:38.306Z,21.83
2018-11-26T18:37:05.777Z,20.30
2018-11-26T18:39:33.339Z,23.13
2018-11-26T18:42:02.425Z,19.17
2018-11-26T18:44:29.884Z,19.17
2018-11-26T18:46:57.344Z,24.67
2018-11-26T18:49:25.779Z,18.30
2018-11-26T18:51:53.246Z,22.27
2018-11-26T18:54:20.732Z,18.97
2018-11-26T18:56:48.190Z,20.83
2018-11-26T18:59:15.649Z,18.33
2018-11-26T19:01:43.125Z,21.07
2018-11-26T19:04:10.597Z,19.70
2018-11-26T19:06:38.060Z,19.33
2018-11-26T19:09:05.630Z,21.40
2018-11-26T19:11:33.100Z,17.90
2018-11-26T19:14:00.653Z,17.50
2018-11-26T19:16:28.118Z,22.23
2018-11-26T19:18:55.589Z,23.40
2018-11-26T19:21:23.351Z,21.87
2018-11-26T19:23:50.914Z,23.07
2018-11-26T19:26:18.377Z,21.03
2018-11-26T19:28:47.369Z,17.50
2018-11-26T19:31:16.387Z,22.47
2018-11-26T19:33:43.875Z,17.03
2018-11-26T19:36:11.385Z,20.97
2018-11-26T19:38:38.954Z,22.27
2018-11-26T19:41:07.233Z,18.37
2018-11-26T19:43:34.706Z,21.57
2018-11-26T19:46:03.902Z,16.53
2018-11-26T19:48:32.152Z,25.37
2018-11-26T19:50:59.615Z,20.57
2018-11-26T19:53:27.098Z,22.20
2018-11-26T19:55:55.382Z,17.77
2018-11-26T19:58:23.301Z,20.55
2018-11-26T20:00:50.777Z,20.10
2018-11-26T20:03:18.283Z,19.23
2018-11-26T20:05:46.552Z,21.70
2018-11-26T20:08:14.081Z,17.20
2018-11-26T20:10:41.533Z,21.20
2018-11-26T20:13:09.774Z,20.97
2018-11-26T20:15:37.250Z,15.70
2018-11-26T20:18:05.493Z,18.47
2018-11-26T20:20:32.958Z,21.20
2018-11-26T20:23:00.529Z,19.27
2018-11-26T20:25:27.994Z,20.33
2018-11-26T20:27:56.075Z,19.17
2018-11-26T20:30:23.703Z,19.50
2018-11-26T20:32:51.190Z,19.53
2018-11-26T20:35:19.525Z,17.97
2018-11-26T20:37:46.982Z,14.90
2018-11-26T20:40:14.819Z,18.20
2018-11-26T20:42:42.279Z,18.73
2018-11-26T20:45:10.525Z,16.90
2018-11-26T20:47:38.013Z,18.03
2018-11-26T20:50:05.582Z,20.13
2018-11-26T20:52:33.044Z,16.97
2018-11-26T20:55:00.511Z,15.17
2018-11-26T20:57:27.976Z,19.67
2018-11-26T20:59:55.528Z,17.27
2018-11-26T21:02:23.001Z,18.47
2018-11-26T21:04:51.235Z,20.87
2018-11-26T21:07:18.718Z,18.93
2018-11-26T21:09:46.186Z,19.63
2018-11-26T21:12:13.650Z,17.67
2018-11-26T21:14:41.119Z,14.93
2018-11-26T21:17:09.352Z,17.23
2018-11-26T21:19:36.808Z,16.93
2018-11-26T21:22:04.291Z,16.80
2018-11-26T21:24:31.754Z,21.73
2018-11-26T21:26:59.229Z,13.53
2018-11-26T21:29:26.686Z,18.33
2018-11-26T21:31:54.156Z,18.33
2018-11-26T21:34:21.637Z,20.50
2018-11-26T21:36:49.861Z,19.40
2018-11-26T21:39:17.345Z,17.87
2018-11-26T21:41:44.805Z,19.52
2018-11-26T21:44:12.272Z,21.50
2018-11-26T21:46:39.729Z,19.30
2018-11-26T21:49:07.200Z,15.97
2018-11-26T21:51:34.668Z,16.60
2018-11-26T21:54:02.148Z,17.03
2018-11-26T21:56:30.386Z,16.67
2018-11-26T21:58:57.873Z,17.90
2018-11-26T22:01:25.340Z,17.27
2018-11-26T22:03:52.954Z,14.30
2018-11-26T22:06:21.124Z,16.03
2018-11-26T22:08:48.539Z,15.93
2018-11-26T22:11:16.095Z,13.50
2018-11-26T22:13:43.554Z,17.70
2018-11-26T22:16:11.018Z,19.20
2018-11-26T22:18:38.496Z,13.63
2018-11-26T22:21:05.948Z,18.47
2018-11-26T22:23:33.415Z,17.63
2018-11-26T22:26:00.878Z,13.17
2018-11-26T22:28:28.339Z,12.87
2018-11-26T22:30:55.798Z,19.73
2018-11-26T22:33:23.292Z,17.33
2018-11-26T22:35:51.533Z,18.47
2018-11-26T22:38:18.992Z,15.10
2018-11-26T22:40:49.134Z,15.57
2018-11-26T22:43:16.682Z,17.60
2018-11-26T22:45:44.235Z,16.83
2018-11-26T22:48:12.018Z,17.00
2018-11-26T22:50:39.506Z,13.00
2018-11-26T22:53:07.741Z,16.30
2018-11-26T22:55:35.213Z,16.27
2018-11-26T22:58:03.619Z,17.20
2018-11-26T23:00:31.088Z,17.83
2018-11-26T23:02:59.357Z,16.97
2018-11-26T23:05:26.917Z,17.17
2018-11-26T23:07:55.137Z,14.33
2018-11-26T23:12:47.890Z,14.13
2018-11-26T23:15:16.154Z,14.33
2018-11-26T23:17:43.703Z,16.90
2018-11-26T23:20:11.157Z,13.73
2018-11-26T23:22:39.269Z,13.87
2018-11-26T23:25:07.526Z,17.17
2018-11-26T23:27:35.088Z,15.20
2018-11-26T23:30:02.558Z,14.87
2018-11-26T23:32:30.010Z,14.60
2018-11-26T23:34:57.477Z,15.17
2018-11-26T23:37:25.033Z,15.07
2018-11-26T23:39:52.494Z,13.00
2018-11-26T23:42:19.971Z,12.37
2018-11-26T23:44:47.433Z,13.07
2018-11-26T23:47:14.982Z,17.67
2018-11-26T23:49:42.750Z,17.30
2018-11-26T23:52:10.218Z,15.50
2018-11-26T23:54:39.177Z,13.60
2018-11-26T23:57:06.643Z,13.63
2018-11-26T23:59:34.118Z,17.67
